createdAt,value
2023-04-11T00:01:15.985Z,7.47
2023-04-11T00:03:45.521Z,7.17
2023-04-11T00:06:16.921Z,7.00
2023-04-11T00:08:48.054Z,5.93
2023-04-11T00:11:18.109Z,6.90
2023-04-11T00:13:47.805Z,7.13
2023-04-11T00:16:17.172Z,6.83
2023-04-11T00:18:48.053Z,7.43
2023-04-11T00:21:19.090Z,7.37
2023-04-11T00:23:49.454Z,8.40
2023-04-11T00:26:18.576Z,7.47
2023-04-11T00:28:47.911Z,7.07
2023-04-11T00:31:18.879Z,7.50
2023-04-11T00:33:48.959Z,8.10
2023-04-11T00:36:20.277Z,8.30
2023-04-11T00:38:49.718Z,9.60
2023-04-11T00:41:19.171Z,9.90
2023-04-11T00:43:50.731Z,11.53
2023-04-11T00:46:20.782Z,12.33
2023-04-11T00:48:50.801Z,15.00
2023-04-11T00:51:22.158Z,12.47
2023-04-11T00:53:52.197Z,14.60
2023-04-11T00:56:23.124Z,14.03
2023-04-11T00:58:53.439Z,13.30
2023-04-11T01:01:25.255Z,14.10
2023-04-11T01:03:56.001Z,13.63
2023-04-11T01:06:27.714Z,15.47
2023-04-11T01:08:57.713Z,13.40
2023-04-11T01:11:27.362Z,13.40
2023-04-11T01:13:57.466Z,15.27
2023-04-11T01:16:26.886Z,14.40
2023-04-11T01:18:56.942Z,13.50
2023-04-11T01:21:28.679Z,12.80
2023-04-11T01:24:03.806Z,12.97
2023-04-11T01:26:33.855Z,12.93
2023-04-11T01:29:04.092Z,13.17
2023-04-11T01:31:34.128Z,12.93
2023-04-11T01:34:04.179Z,13.40
2023-04-11T01:36:34.081Z,13.10
2023-04-11T01:39:04.972Z,13.40
2023-04-11T01:41:36.144Z,14.03
2023-04-11T01:44:07.867Z,13.77
2023-04-11T01:46:38.246Z,13.40
2023-04-11T01:49:09.022Z,13.90
2023-04-11T01:51:38.484Z,14.93
2023-04-11T01:54:10.193Z,14.17
2023-04-11T01:56:40.556Z,11.77
2023-04-11T01:59:09.635Z,11.10
2023-04-11T02:01:46.831Z,11.83
2023-04-11T02:04:16.128Z,11.23
2023-04-11T02:06:46.151Z,10.70
2023-04-11T02:09:17.855Z,10.30
2023-04-11T02:11:47.253Z,11.00
2023-04-11T02:14:16.508Z,10.93
2023-04-11T02:16:53.836Z,11.17
2023-04-11T02:19:23.542Z,11.23
2023-04-11T02:21:55.131Z,11.10
2023-04-11T02:24:27.074Z,11.13
2023-04-11T02:26:57.000Z,9.93
2023-04-11T02:29:27.973Z,9.47
2023-04-11T02:31:59.084Z,7.77
2023-04-11T02:34:29.227Z,7.60
2023-04-11T02:36:58.719Z,7.33
2023-04-11T02:39:31.521Z,6.23
2023-04-11T02:42:01.103Z,7.50
2023-04-11T02:44:31.029Z,7.63
2023-04-11T02:47:02.923Z,7.63
2023-04-11T02:49:32.365Z,9.10
2023-04-11T02:52:02.283Z,8.03
2023-04-11T02:54:33.862Z,8.77
2023-04-11T02:57:04.514Z,8.67
2023-04-11T02:59:33.997Z,9.10
2023-04-11T03:02:04.925Z,10.13
2023-04-11T03:04:34.480Z,10.00
2023-04-11T03:07:13.973Z,8.77
2023-04-11T03:09:45.632Z,9.50
2023-04-11T03:12:15.213Z,8.60
2023-04-11T03:14:54.569Z,9.10
2023-04-11T03:17:25.319Z,7.77
2023-04-11T03:19:54.463Z,8.03
2023-04-11T03:22:26.492Z,8.20
2023-04-11T03:24:57.320Z,8.90
2023-04-11T03:27:27.432Z,8.60
2023-04-11T03:30:01.178Z,7.80
2023-04-11T03:32:43.029Z,8.67
2023-04-11T03:35:12.439Z,8.30
2023-04-11T03:37:46.299Z,9.00
2023-04-11T03:40:18.805Z,9.13
2023-04-11T03:42:55.378Z,8.07
2023-04-11T03:45:29.169Z,8.97
2023-04-11T03:48:02.015Z,7.80
2023-04-11T03:50:45.411Z,8.30
2023-04-11T03:53:17.740Z,8.53
2023-04-11T03:55:50.331Z,9.30
2023-04-11T03:58:22.000Z,10.20
2023-04-11T04:00:52.272Z,11.63
2023-04-11T04:03:21.863Z,12.70
2023-04-11T04:05:52.928Z,12.40
2023-04-11T04:08:24.387Z,12.60
2023-04-11T04:10:55.901Z,12.20
2023-04-11T04:13:25.655Z,13.17
2023-04-11T04:16:04.457Z,12.10
2023-04-11T04:18:34.899Z,11.00
2023-04-11T04:21:04.224Z,10.10
2023-04-11T04:23:34.618Z,10.20
2023-04-11T04:26:26.227Z,9.60
2023-04-11T04:29:07.406Z,8.50
2023-04-11T04:31:53.282Z,8.67
2023-04-11T04:34:32.539Z,8.00
2023-04-11T04:37:02.665Z,8.20
2023-04-11T04:39:44.229Z,8.80
2023-04-11T04:42:21.471Z,9.10
2023-04-11T04:44:52.363Z,8.97
2023-04-11T04:47:22.111Z,9.10
2023-04-11T04:49:51.892Z,9.90
2023-04-11T04:52:21.816Z,9.70
2023-04-11T04:54:51.129Z,9.60
2023-04-11T04:57:21.765Z,9.63
2023-04-11T04:59:52.198Z,13.13
2023-04-11T05:02:21.807Z,12.50
2023-04-11T05:04:54.177Z,12.00
2023-04-11T05:07:25.414Z,11.53
2023-04-11T05:09:54.724Z,13.60
2023-04-11T05:12:29.010Z,12.37
2023-04-11T05:15:11.579Z,13.03
2023-04-11T05:17:43.708Z,11.83
2023-04-11T05:20:15.527Z,13.00
2023-04-11T05:22:49.859Z,13.17
2023-04-11T05:25:20.979Z,11.80
2023-04-11T05:27:54.642Z,11.80
2023-04-11T05:30:26.942Z,12.73
2023-04-11T05:32:57.250Z,12.23
2023-04-11T05:35:27.666Z,12.27
2023-04-11T05:37:59.162Z,12.63
2023-04-11T05:40:29.145Z,12.53
2023-04-11T05:43:00.437Z,11.27
2023-04-11T05:45:30.737Z,11.37
2023-04-11T05:48:00.057Z,12.33
2023-04-11T05:50:30.576Z,11.20
2023-04-11T05:52:59.741Z,11.27
2023-04-11T05:55:29.170Z,11.20
2023-04-11T05:58:00.205Z,11.27
2023-04-11T06:00:31.236Z,12.20
2023-04-11T06:03:03.692Z,11.90
2023-04-11T06:05:34.966Z,11.17
2023-04-11T06:08:05.637Z,13.50
2023-04-11T06:10:34.897Z,11.70
2023-04-11T06:13:12.831Z,10.57
2023-04-11T06:15:42.780Z,10.83
2023-04-11T06:18:13.088Z,10.33
2023-04-11T06:20:43.308Z,11.73
2023-04-11T06:23:12.322Z,10.30
2023-04-11T06:25:42.366Z,10.70
2023-04-11T06:28:14.067Z,12.03
2023-04-11T06:30:43.838Z,10.67
2023-04-11T06:33:13.004Z,11.43
2023-04-11T06:35:43.622Z,11.17
2023-04-11T06:38:12.785Z,11.47
2023-04-11T06:40:42.731Z,24.77
2023-04-11T06:43:13.871Z,13.50
2023-04-11T06:45:44.168Z,13.47
2023-04-11T06:48:13.273Z,13.97
2023-04-11T06:50:43.168Z,15.13
2023-04-11T06:53:12.245Z,15.63
2023-04-11T06:55:42.434Z,13.77
2023-04-11T06:58:12.232Z,15.07
2023-04-11T07:00:43.288Z,15.43
2023-04-11T07:03:14.303Z,14.60
2023-04-11T07:05:44.101Z,14.10
2023-04-11T07:08:14.721Z,15.43
2023-04-11T07:10:43.813Z,15.33
2023-04-11T07:13:15.050Z,15.63
2023-04-11T07:15:46.154Z,17.23
2023-04-11T07:18:15.930Z,16.03
2023-04-11T07:20:45.013Z,16.23
2023-04-11T07:23:15.272Z,15.97
2023-04-11T07:25:45.947Z,18.50
2023-04-11T07:28:15.657Z,17.90
2023-04-11T07:30:46.995Z,24.20
2023-04-11T07:33:17.021Z,20.30
2023-04-11T07:35:46.151Z,21.07
2023-04-11T07:38:16.035Z,21.13
2023-04-11T07:40:45.452Z,19.30
2023-04-11T07:43:14.922Z,21.80
2023-04-11T07:45:44.862Z,20.27
2023-04-11T07:48:16.440Z,20.63
2023-04-11T07:50:46.477Z,18.40
2023-04-11T07:53:15.657Z,18.20
2023-04-11T07:55:45.070Z,17.93
2023-04-11T07:58:14.414Z,17.63
2023-04-11T08:00:43.914Z,19.17
2023-04-11T08:03:13.865Z,19.20
2023-04-11T08:05:45.099Z,19.47
2023-04-11T08:08:15.052Z,18.47
2023-04-11T08:10:46.231Z,18.60
2023-04-11T08:13:15.888Z,18.50
2023-04-11T08:15:45.033Z,16.90
2023-04-11T08:18:16.718Z,16.00
2023-04-11T08:20:47.546Z,16.50
2023-04-11T08:23:16.684Z,15.90
2023-04-11T08:25:46.433Z,16.17
2023-04-11T08:28:15.646Z,14.43
2023-04-11T08:30:45.623Z,14.80
2023-04-11T08:33:15.571Z,15.67
2023-04-11T08:35:44.955Z,16.00
2023-04-11T08:38:15.670Z,16.20
2023-04-11T08:40:46.231Z,11.57
2023-04-11T08:43:15.505Z,10.53
2023-04-11T08:45:45.287Z,9.80
2023-04-11T08:48:15.370Z,7.17
2023-04-11T08:50:46.666Z,7.00
2023-04-11T08:53:18.389Z,8.80
2023-04-11T08:55:48.347Z,9.10
2023-04-11T08:58:17.673Z,8.97
2023-04-11T09:00:47.700Z,8.00
2023-04-11T09:03:18.745Z,8.37
2023-04-11T09:05:48.954Z,8.40
2023-04-11T09:08:20.956Z,7.97
2023-04-11T09:10:50.309Z,10.57
2023-04-11T09:13:22.080Z,10.40
2023-04-11T09:16:05.528Z,11.47
2023-04-11T09:18:36.148Z,9.67
2023-04-11T09:21:07.632Z,11.20
2023-04-11T09:23:38.779Z,13.63
2023-04-11T09:26:09.334Z,11.70
2023-04-11T09:28:43.575Z,31.23
2023-04-11T09:31:13.782Z,17.00
2023-04-11T09:33:55.443Z,17.80
2023-04-11T09:36:28.751Z,21.97
2023-04-11T09:38:59.855Z,23.03
2023-04-11T09:41:32.702Z,22.70
2023-04-11T09:44:02.700Z,22.10
2023-04-11T09:46:31.872Z,24.90
2023-04-11T09:49:02.645Z,25.43
2023-04-11T09:51:36.983Z,24.47
2023-04-11T09:54:08.519Z,19.20
2023-04-11T09:56:39.187Z,21.43
2023-04-11T09:59:09.677Z,21.87
2023-04-11T10:01:39.644Z,19.67
2023-04-11T10:04:11.375Z,17.50
2023-04-11T10:06:44.199Z,18.63
2023-04-11T10:09:17.248Z,19.90
2023-04-11T10:11:46.939Z,19.40
2023-04-11T10:14:36.474Z,18.13
2023-04-11T10:17:23.059Z,18.20
2023-04-11T10:19:58.312Z,15.50
2023-04-11T10:23:00.637Z,16.80
2023-04-11T10:25:31.665Z,17.20
2023-04-11T10:28:04.179Z,17.37
2023-04-11T10:30:52.397Z,16.63
2023-04-11T10:33:21.756Z,16.10
2023-04-11T10:36:05.729Z,13.80
2023-04-11T10:38:51.517Z,15.57
2023-04-11T10:41:32.946Z,14.00
2023-04-11T10:44:21.028Z,16.50
2023-04-11T10:46:56.091Z,13.67
2023-04-11T10:52:20.906Z,13.00
2023-04-11T10:54:50.865Z,13.40
2023-04-11T10:57:22.066Z,11.83
2023-04-11T11:00:15.862Z,12.93
2023-04-11T11:02:46.810Z,12.37
2023-04-11T11:05:20.597Z,12.67
2023-04-11T11:07:52.071Z,11.60
2023-04-11T11:10:37.586Z,11.37
2023-04-11T11:13:10.018Z,10.13
2023-04-11T11:15:39.976Z,10.97
2023-04-11T11:18:10.956Z,11.83
2023-04-11T11:20:41.242Z,11.07
2023-04-11T11:23:11.833Z,10.33
2023-04-11T11:25:41.321Z,10.80
2023-04-11T11:28:11.805Z,11.00
2023-04-11T11:30:54.098Z,11.10
2023-04-11T11:33:26.822Z,10.20
2023-04-11T11:35:57.547Z,10.93
2023-04-11T11:38:27.979Z,10.63
2023-04-11T11:40:58.202Z,10.37
2023-04-11T11:43:29.757Z,10.40
2023-04-11T11:46:09.461Z,10.00
2023-04-11T11:48:39.285Z,9.70
2023-04-11T11:51:08.494Z,10.17
2023-04-11T11:53:38.643Z,11.57
2023-04-11T11:56:14.945Z,9.90
2023-04-11T11:58:46.249Z,9.83
2023-04-11T12:01:17.827Z,9.17
2023-04-11T12:03:51.767Z,10.20
2023-04-11T12:06:21.413Z,10.07
2023-04-11T12:08:54.706Z,9.33
2023-04-11T12:11:25.393Z,8.00
2023-04-11T12:13:57.231Z,8.40
2023-04-11T12:16:27.715Z,7.93
2023-04-11T12:19:00.681Z,9.13
2023-04-11T12:21:30.741Z,8.60
2023-04-11T12:23:59.840Z,10.37
2023-04-11T12:26:29.344Z,7.40
2023-04-11T12:29:02.225Z,7.77
2023-04-11T12:31:32.064Z,7.47
2023-04-11T12:34:01.475Z,7.83
2023-04-11T12:39:05.973Z,7.87
2023-04-11T12:41:35.039Z,6.97
2023-04-11T12:44:06.786Z,7.70
2023-04-11T12:46:36.411Z,7.53
2023-04-11T12:49:05.803Z,7.10
2023-04-11T12:51:36.119Z,6.90
2023-04-11T12:54:05.220Z,6.50
2023-04-11T12:56:34.855Z,5.30
2023-04-11T12:59:04.520Z,6.07
2023-04-11T13:01:35.365Z,6.10
2023-04-11T13:04:04.782Z,6.37
2023-04-11T13:06:34.451Z,6.20
2023-04-11T13:09:05.923Z,5.70
2023-04-11T13:11:36.913Z,4.50
2023-04-11T13:14:06.004Z,4.87
2023-04-11T13:16:37.704Z,5.63
2023-04-11T13:19:08.597Z,5.97
2023-04-11T13:21:38.568Z,5.23
2023-04-11T13:24:08.360Z,5.37
2023-04-11T13:26:37.764Z,5.40
2023-04-11T13:29:07.737Z,6.27
2023-04-11T13:31:38.299Z,8.60
2023-04-11T13:34:09.487Z,6.00
2023-04-11T13:36:38.567Z,4.60
2023-04-11T13:39:08.182Z,4.87
2023-04-11T13:41:38.014Z,4.40
2023-04-11T13:44:07.888Z,4.73
2023-04-11T13:46:39.297Z,8.13
2023-04-11T13:49:08.909Z,4.30
2023-04-11T13:51:37.951Z,4.63
2023-04-11T13:54:07.748Z,4.67
2023-04-11T13:56:38.025Z,4.50
2023-04-11T13:59:09.253Z,4.27
2023-04-11T14:01:39.917Z,4.03
2023-04-11T14:04:10.167Z,4.10
2023-04-11T14:06:39.466Z,4.23
2023-04-11T14:09:08.935Z,4.00
2023-04-11T14:11:38.017Z,3.93
2023-04-11T14:14:08.932Z,3.60
2023-04-11T14:16:39.911Z,3.33
2023-04-11T14:19:10.971Z,3.73
2023-04-11T14:21:40.963Z,3.60
2023-04-11T14:24:10.875Z,3.30
2023-04-11T14:26:40.455Z,3.77
2023-04-11T14:29:09.499Z,3.90
2023-04-11T14:31:41.490Z,3.30
2023-04-11T14:34:11.714Z,3.37
2023-04-11T14:36:40.947Z,3.40
2023-04-11T14:39:11.140Z,3.50
2023-04-11T14:41:40.144Z,3.70
2023-04-11T14:44:10.077Z,2.80
2023-04-11T14:46:41.946Z,2.57
2023-04-11T14:49:11.689Z,3.20
2023-04-11T14:51:40.767Z,2.87
2023-04-11T14:54:10.354Z,2.70
2023-04-11T14:56:39.489Z,3.27
2023-04-11T14:59:11.709Z,3.00
2023-04-11T15:01:42.464Z,2.70
2023-04-11T15:04:11.697Z,2.90
2023-04-11T15:06:41.951Z,2.70
2023-04-11T15:09:11.224Z,3.13
2023-04-11T15:11:40.517Z,2.70
2023-04-11T15:14:10.079Z,2.80
2023-04-11T15:16:39.469Z,2.73
2023-04-11T15:19:10.095Z,3.00
2023-04-11T15:21:40.831Z,2.80
2023-04-11T15:24:10.494Z,2.70
2023-04-11T15:26:40.002Z,2.47
2023-04-11T15:29:14.409Z,3.47
2023-04-11T15:31:44.946Z,2.87
2023-04-11T15:34:16.399Z,3.00
2023-04-11T15:36:45.889Z,2.73
2023-04-11T15:39:14.999Z,3.53
2023-04-11T15:41:45.331Z,2.70
2023-04-11T15:44:14.471Z,2.63
2023-04-11T15:46:48.154Z,2.77
2023-04-11T15:49:20.160Z,3.40
2023-04-11T15:51:50.902Z,3.07
2023-04-11T15:54:19.984Z,3.20
2023-04-11T15:56:50.538Z,2.60
2023-04-11T15:59:20.698Z,3.00
2023-04-11T16:01:50.433Z,3.00
2023-04-11T16:04:21.318Z,2.60
2023-04-11T16:06:51.447Z,2.93
2023-04-11T16:09:20.734Z,2.90
2023-04-11T16:11:50.678Z,3.90
2023-04-11T16:14:20.392Z,3.03
2023-04-11T16:16:49.826Z,2.87
2023-04-11T16:19:18.922Z,3.10
2023-04-11T16:21:50.602Z,2.60
2023-04-11T16:24:20.249Z,3.50
2023-04-11T16:26:50.355Z,2.87
2023-04-11T16:29:20.836Z,3.10
2023-04-11T16:31:49.939Z,3.50
2023-04-11T16:34:20.079Z,3.80
2023-04-11T16:36:52.140Z,3.33
2023-04-11T16:39:22.140Z,3.23
2023-04-11T16:41:51.344Z,3.83
2023-04-11T16:44:21.982Z,3.10
2023-04-11T16:46:53.050Z,3.10
2023-04-11T16:49:23.169Z,2.60
2023-04-11T16:51:53.981Z,2.60
2023-04-11T16:54:24.782Z,2.90
2023-04-11T16:56:53.894Z,3.37
2023-04-11T16:59:24.017Z,2.90
2023-04-11T17:01:53.458Z,2.70
2023-04-11T17:04:23.203Z,2.47
2023-04-11T17:06:55.798Z,2.90
2023-04-11T17:09:25.538Z,5.30
2023-04-11T17:11:54.930Z,2.40
2023-04-11T17:14:24.832Z,2.60
2023-04-11T17:16:54.302Z,2.33
2023-04-11T17:19:25.596Z,2.80
2023-04-11T17:21:58.505Z,2.53
2023-04-11T17:24:28.361Z,2.60
2023-04-11T17:26:58.221Z,2.80
2023-04-11T17:29:29.573Z,3.03
2023-04-11T17:31:58.582Z,2.40
2023-04-11T17:34:28.031Z,3.50
2023-04-11T17:37:00.304Z,4.67
2023-04-11T17:39:29.916Z,2.80
2023-04-11T17:41:59.026Z,2.90
2023-04-11T17:44:28.659Z,2.40
2023-04-11T17:46:57.845Z,2.60
2023-04-11T17:49:28.226Z,2.37
2023-04-11T17:51:59.638Z,2.83
2023-04-11T17:54:31.548Z,2.73
2023-04-11T17:57:02.340Z,2.57
2023-04-11T17:59:31.872Z,2.80
2023-04-11T18:02:01.377Z,3.10
2023-04-11T18:04:31.093Z,2.57
2023-04-11T18:07:00.189Z,2.73
2023-04-11T18:09:32.321Z,2.37
2023-04-11T18:12:02.634Z,2.40
2023-04-11T18:14:33.336Z,2.00
2023-04-11T18:17:03.455Z,2.40
2023-04-11T18:19:33.022Z,2.67
2023-04-11T18:22:03.897Z,2.47
2023-04-11T18:24:34.737Z,2.93
2023-04-11T18:27:05.431Z,2.97
2023-04-11T18:29:34.437Z,2.70
2023-04-11T18:32:05.019Z,3.77
2023-04-11T18:34:34.402Z,4.30
2023-04-11T18:37:04.002Z,2.80
2023-04-11T18:39:34.960Z,3.20
2023-04-11T18:42:06.390Z,3.10
2023-04-11T18:44:36.597Z,3.00
2023-04-11T18:47:06.840Z,3.30
2023-04-11T18:49:38.546Z,3.90
2023-04-11T18:52:07.787Z,4.00
2023-04-11T18:54:38.830Z,3.90
2023-04-11T18:57:10.175Z,3.50
2023-04-11T18:59:43.364Z,4.10
2023-04-11T19:02:14.538Z,3.47
2023-04-11T19:04:46.172Z,4.30
2023-04-11T19:07:16.056Z,5.00
2023-04-11T19:09:47.280Z,5.43
2023-04-11T19:12:17.311Z,5.27
2023-04-11T19:14:46.595Z,5.50
2023-04-11T19:17:16.195Z,5.10
2023-04-11T19:19:45.356Z,5.03
2023-04-11T19:22:15.070Z,5.30
2023-04-11T19:24:44.619Z,6.50
2023-04-11T19:27:18.378Z,5.83
2023-04-11T19:29:49.977Z,6.80
2023-04-11T19:32:21.721Z,6.57
2023-04-11T19:34:51.844Z,6.50
2023-04-11T19:37:22.790Z,6.87
2023-04-11T19:39:51.931Z,6.87
2023-04-11T19:42:26.097Z,7.80
2023-04-11T19:44:56.871Z,8.10
2023-04-11T19:47:26.248Z,10.97
2023-04-11T19:49:57.115Z,8.30
2023-04-11T19:52:26.572Z,7.27
2023-04-11T19:54:55.814Z,7.23
2023-04-11T19:57:29.922Z,7.77
2023-04-11T19:59:59.289Z,9.93
2023-04-11T20:02:28.451Z,8.17
2023-04-11T20:04:59.448Z,6.23
2023-04-11T20:07:29.032Z,6.57
2023-04-11T20:09:58.596Z,5.63
2023-04-11T20:12:29.227Z,8.10
2023-04-11T20:14:58.978Z,7.00
2023-04-11T20:17:28.051Z,6.10
2023-04-11T20:19:58.953Z,7.33
2023-04-11T20:22:28.411Z,9.80
2023-04-11T20:24:57.609Z,6.90
2023-04-11T20:27:30.304Z,6.97
2023-04-11T20:30:00.811Z,7.70
2023-04-11T20:32:30.003Z,6.37
2023-04-11T20:35:02.282Z,9.63
2023-04-11T20:37:34.614Z,7.63
2023-04-11T20:40:07.557Z,8.00
2023-04-11T20:42:42.567Z,5.87
2023-04-11T20:45:14.366Z,5.77
2023-04-11T20:47:46.248Z,5.33
2023-04-11T20:50:17.325Z,7.90
2023-04-11T20:52:47.134Z,6.50
2023-04-11T20:55:17.200Z,6.77
2023-04-11T20:57:48.455Z,6.87
2023-04-11T21:00:19.033Z,6.93
2023-04-11T21:02:50.641Z,6.40
2023-04-11T21:05:22.429Z,8.37
2023-04-11T21:07:55.057Z,6.30
2023-04-11T21:10:24.883Z,7.20
2023-04-11T21:12:55.591Z,7.63
2023-04-11T21:15:25.579Z,7.27
2023-04-11T21:17:54.648Z,7.80
2023-04-11T21:20:25.020Z,7.33
2023-04-11T21:22:54.925Z,7.27
2023-04-11T21:25:25.686Z,7.70
2023-04-11T21:27:56.320Z,9.37
2023-04-11T21:30:26.893Z,8.77
2023-04-11T21:32:56.031Z,12.50
2023-04-11T21:35:27.176Z,6.80
2023-04-11T21:37:56.848Z,6.50
2023-04-11T21:40:26.252Z,7.27
2023-04-11T21:42:58.585Z,6.17
2023-04-11T21:45:28.684Z,5.57
2023-04-11T21:47:57.855Z,4.63
2023-04-11T21:50:28.513Z,4.00
2023-04-11T21:52:57.547Z,3.90
2023-04-11T21:55:27.611Z,4.10
2023-04-11T21:57:58.514Z,9.70
2023-04-11T22:00:28.178Z,10.90
2023-04-11T22:02:58.746Z,3.83
2023-04-11T22:05:28.649Z,4.90
2023-04-11T22:08:12.280Z,4.10
2023-04-11T22:10:47.721Z,4.43
2023-04-11T22:13:21.144Z,4.70
2023-04-11T22:15:58.542Z,5.00
2023-04-11T22:18:28.920Z,4.53
2023-04-11T22:20:57.962Z,5.20
2023-04-11T22:23:27.919Z,4.70
2023-04-11T22:26:00.192Z,5.50
2023-04-11T22:28:31.690Z,4.07
2023-04-11T22:31:01.671Z,4.90
2023-04-11T22:33:31.734Z,4.40
2023-04-11T22:36:03.204Z,3.73
2023-04-11T22:38:33.605Z,3.43
2023-04-11T22:41:02.924Z,3.50
2023-04-11T22:43:34.666Z,5.40
2023-04-11T22:46:04.124Z,6.63
2023-04-11T22:48:33.298Z,4.60
2023-04-11T22:51:04.473Z,4.87
2023-04-11T22:53:33.726Z,3.93
2023-04-11T22:56:04.365Z,4.73
2023-04-11T22:58:35.111Z,5.40
2023-04-11T23:01:15.785Z,4.67
2023-04-11T23:03:45.132Z,4.90
2023-04-11T23:06:14.803Z,4.83
2023-04-11T23:08:43.854Z,4.30
2023-04-11T23:11:13.337Z,5.00
2023-04-11T23:13:43.800Z,5.30
2023-04-11T23:16:15.221Z,4.97
2023-04-11T23:18:45.093Z,5.00
2023-04-11T23:21:14.685Z,4.50
2023-04-11T23:23:44.872Z,5.30
2023-04-11T23:26:20.754Z,5.23
2023-04-11T23:28:52.827Z,5.47
2023-04-11T23:31:22.687Z,4.70
2023-04-11T23:33:52.895Z,5.23
2023-04-11T23:36:24.041Z,5.27
2023-04-11T23:38:53.544Z,5.10
2023-04-11T23:41:22.694Z,4.87
2023-04-11T23:43:54.655Z,5.57
2023-04-11T23:46:24.541Z,4.83
2023-04-11T23:48:54.694Z,5.17
2023-04-11T23:51:25.326Z,6.17
2023-04-11T23:53:54.408Z,5.40
2023-04-11T23:56:24.296Z,5.27
2023-04-11T23:58:55.527Z,6.00
